createdAt,value
2018-07-08T00:00:14.444Z,21.00
2018-07-08T00:05:18.463Z,20.90
2018-07-08T00:10:22.700Z,20.90
2018-07-08T00:15:26.419Z,20.90
2018-07-08T00:20:30.124Z,20.80
2018-07-08T00:25:33.907Z,20.90
2018-07-08T00:30:37.548Z,20.90
2018-07-08T00:35:43.364Z,20.80
2018-07-08T00:40:46.980Z,20.80
2018-07-08T00:45:51.207Z,20.70
2018-07-08T00:50:54.813Z,20.70
2018-07-08T00:55:58.527Z,20.60
2018-07-08T01:01:02.375Z,20.60
2018-07-08T01:06:06.316Z,20.60
2018-07-08T01:11:10.154Z,20.60
2018-07-08T01:16:13.813Z,20.50
2018-07-08T01:21:17.456Z,20.50
2018-07-08T01:26:21.548Z,20.50
2018-07-08T01:31:25.088Z,20.40
2018-07-08T01:36:28.845Z,20.50
2018-07-08T01:41:32.492Z,20.40
2018-07-08T01:51:39.520Z,20.40
2018-07-08T02:01:46.463Z,20.40
2018-07-08T02:11:53.741Z,20.50
2018-07-08T02:16:57.744Z,20.50
2018-07-08T02:22:01.327Z,20.40
2018-07-08T02:27:05.199Z,20.40
2018-07-08T02:32:09.732Z,20.30
2018-07-08T02:37:13.335Z,20.20
2018-07-08T02:42:18.944Z,20.20
2018-07-08T02:47:23.582Z,20.10
2018-07-08T02:52:27.515Z,20.10
2018-07-08T02:57:31.084Z,20.00
2018-07-08T03:02:35.239Z,20.00
2018-07-08T03:07:38.996Z,19.90
2018-07-08T03:12:42.917Z,19.80
2018-07-08T03:17:46.463Z,19.80
2018-07-08T03:22:50.034Z,19.80
2018-07-08T03:27:53.587Z,19.70
2018-07-08T03:32:57.476Z,19.70
2018-07-08T03:38:01.484Z,19.60
2018-07-08T03:43:05.030Z,19.60
2018-07-08T03:48:09.492Z,19.60
2018-07-08T03:53:13.031Z,19.60
2018-07-08T03:58:16.597Z,19.50
2018-07-08T04:03:20.135Z,19.50
2018-07-08T04:08:23.728Z,19.40
2018-07-08T04:13:27.415Z,19.40
2018-07-08T04:18:33.804Z,19.40
2018-07-08T04:23:37.369Z,19.40
2018-07-08T04:28:42.787Z,19.40
2018-07-08T04:33:46.340Z,19.50
2018-07-08T04:38:49.879Z,19.60
2018-07-08T04:43:53.772Z,19.80
2018-07-08T04:48:57.389Z,19.90
2018-07-08T04:54:00.920Z,19.90
2018-07-08T04:59:05.311Z,19.90
2018-07-08T05:04:08.853Z,19.90
2018-07-08T05:09:12.459Z,19.80
2018-07-08T05:14:16.110Z,20.00
2018-07-08T05:19:19.651Z,20.10
2018-07-08T05:24:23.230Z,20.30
2018-07-08T05:29:26.879Z,20.20
2018-07-08T05:34:30.563Z,20.30
2018-07-08T05:39:34.245Z,20.50
2018-07-08T05:44:38.789Z,20.60
2018-07-08T05:49:42.498Z,20.80
2018-07-08T05:54:46.212Z,20.80
2018-07-08T05:59:49.768Z,20.70
2018-07-08T06:04:53.318Z,20.60
2018-07-08T06:09:56.848Z,20.70
2018-07-08T06:20:04.035Z,20.90
2018-07-08T06:25:08.462Z,21.20
2018-07-08T06:30:12.152Z,21.40
2018-07-08T06:35:16.676Z,21.70
2018-07-08T06:40:20.271Z,21.90
2018-07-08T06:45:23.976Z,22.00
2018-07-08T06:50:27.748Z,21.80
2018-07-08T06:55:31.299Z,21.60
2018-07-08T07:00:35.020Z,21.70
2018-07-08T07:05:38.568Z,21.60
2018-07-08T07:10:42.369Z,21.60
2018-07-08T07:15:45.916Z,21.70
2018-07-08T07:20:49.448Z,21.80
2018-07-08T07:25:53.705Z,22.10
2018-07-08T07:30:57.294Z,22.80
2018-07-08T07:36:00.888Z,23.00
2018-07-08T07:41:04.435Z,22.90
2018-07-08T07:46:08.367Z,22.70
2018-07-08T07:51:11.949Z,22.50
2018-07-08T07:56:15.717Z,22.50
2018-07-08T08:01:23.566Z,22.50
2018-07-08T08:06:27.397Z,22.70
2018-07-08T08:11:31.204Z,22.70
2018-07-08T08:16:35.696Z,22.80
2018-07-08T08:21:39.780Z,23.10
2018-07-08T08:26:44.000Z,23.20
2018-07-08T08:31:48.484Z,23.60
2018-07-08T08:36:52.015Z,23.80
2018-07-08T08:41:55.584Z,23.80
2018-07-08T08:46:59.171Z,23.80
2018-07-08T08:52:02.943Z,23.80
2018-07-08T08:57:06.587Z,24.00
2018-07-08T09:02:10.391Z,24.20
2018-07-08T09:07:15.146Z,24.20
2018-07-08T09:12:19.072Z,25.00
2018-07-08T09:17:23.002Z,24.70
2018-07-08T09:22:26.524Z,25.20
2018-07-08T09:27:30.244Z,25.20
2018-07-08T09:37:37.628Z,25.20
2018-07-08T09:42:41.309Z,25.40
2018-07-08T09:47:44.844Z,25.50
2018-07-08T09:52:48.372Z,26.10
2018-07-08T09:57:57.533Z,26.70
2018-07-08T10:03:11.449Z,26.90
2018-07-08T10:08:15.198Z,26.90
2018-07-08T10:13:18.752Z,26.90
2018-07-08T10:18:22.286Z,27.20
2018-07-08T10:23:25.868Z,26.90
2018-07-08T10:28:29.461Z,27.00
2018-07-08T10:34:05.121Z,27.00
2018-07-08T10:39:10.303Z,27.10
2018-07-08T10:49:42.080Z,27.60
2018-07-08T10:54:45.686Z,27.60
2018-07-08T10:59:49.423Z,28.00
2018-07-08T11:04:54.687Z,28.10
2018-07-08T11:09:58.402Z,28.50
2018-07-08T11:15:02.019Z,28.60
2018-07-08T11:20:05.685Z,28.70
2018-07-08T11:25:09.589Z,28.80
2018-07-08T11:30:13.431Z,28.90
2018-07-08T11:35:17.008Z,29.00
2018-07-08T11:40:20.599Z,29.30
2018-07-08T11:45:24.344Z,29.30
2018-07-08T11:50:29.876Z,29.60
2018-07-08T11:55:33.631Z,29.60
2018-07-08T12:00:37.400Z,29.50
2018-07-08T12:05:40.933Z,29.30
2018-07-08T12:10:44.500Z,29.50
2018-07-08T12:15:48.272Z,28.70
2018-07-08T12:20:51.898Z,29.40
2018-07-08T12:25:55.643Z,29.10
2018-07-08T12:30:59.486Z,29.10
2018-07-08T12:36:03.104Z,29.60
2018-07-08T12:41:06.854Z,29.50
2018-07-08T12:46:10.396Z,29.10
2018-07-08T12:51:14.012Z,28.70
2018-07-08T12:56:17.751Z,28.50
2018-07-08T13:01:22.155Z,29.10
2018-07-08T13:06:26.077Z,29.20
2018-07-08T13:11:29.858Z,29.40
2018-07-08T13:16:33.429Z,30.00
2018-07-08T13:21:37.081Z,30.50
2018-07-08T13:26:40.884Z,30.80
2018-07-08T13:31:44.528Z,31.00
2018-07-08T13:36:48.123Z,31.60
2018-07-08T13:41:51.691Z,32.40
2018-07-08T13:46:55.245Z,32.30
2018-07-08T13:51:58.897Z,32.40
2018-07-08T13:57:02.482Z,32.50
2018-07-08T14:02:06.211Z,32.30
2018-07-08T14:07:11.300Z,32.00
2018-07-08T14:12:14.879Z,31.70
2018-07-08T14:17:18.450Z,31.70
2018-07-08T14:22:22.009Z,31.70
2018-07-08T14:27:25.818Z,31.60
2018-07-08T14:32:29.444Z,31.40
2018-07-08T14:37:33.303Z,32.00
2018-07-08T14:42:37.794Z,32.30
2018-07-08T14:47:41.508Z,31.80
2018-07-08T14:52:45.124Z,31.60
2018-07-08T14:57:48.781Z,31.20
2018-07-08T15:02:52.505Z,31.00
2018-07-08T15:07:56.312Z,30.80
2018-07-08T15:13:00.236Z,30.90
2018-07-08T15:23:07.448Z,32.30
2018-07-08T15:28:11.108Z,32.90
2018-07-08T15:33:14.617Z,33.20
2018-07-08T15:38:18.582Z,33.20
2018-07-08T15:43:22.252Z,33.20
2018-07-08T15:48:26.009Z,33.40
2018-07-08T15:53:29.621Z,33.40
2018-07-08T16:03:36.559Z,33.50
2018-07-08T16:08:41.104Z,33.60
2018-07-08T16:13:44.893Z,33.80
2018-07-08T16:18:48.708Z,33.80
2018-07-08T16:23:52.267Z,33.70
2018-07-08T16:28:55.844Z,33.60
2018-07-08T16:34:01.066Z,33.80
2018-07-08T16:44:08.305Z,33.40
2018-07-08T16:49:11.818Z,33.50
2018-07-08T16:54:15.767Z,33.20
2018-07-08T16:59:20.204Z,33.00
2018-07-08T17:04:24.052Z,33.00
2018-07-08T17:09:27.607Z,33.00
2018-07-08T17:14:31.395Z,32.80
2018-07-08T17:19:35.362Z,32.60
2018-07-08T17:24:39.001Z,32.30
2018-07-08T17:29:42.564Z,32.00
2018-07-08T17:34:46.584Z,31.60
2018-07-08T17:39:50.188Z,31.20
2018-07-08T17:49:57.236Z,30.90
2018-07-08T17:55:06.593Z,30.60
2018-07-08T18:00:10.175Z,30.60
2018-07-08T18:05:13.720Z,30.70
2018-07-08T18:10:17.348Z,30.50
2018-07-08T18:15:22.187Z,30.30
2018-07-08T18:20:25.896Z,30.20
2018-07-08T18:25:30.063Z,30.00
2018-07-08T18:30:34.955Z,29.90
2018-07-08T18:35:38.556Z,29.70
2018-07-08T18:40:42.305Z,29.50
2018-07-08T18:45:47.650Z,29.20
2018-07-08T18:50:51.414Z,29.10
2018-07-08T18:55:56.442Z,28.80
2018-07-08T19:01:03.077Z,28.70
2018-07-08T19:06:07.428Z,28.50
2018-07-08T19:11:10.996Z,28.20
2018-07-08T19:16:14.829Z,28.00
2018-07-08T19:21:18.375Z,27.90
2018-07-08T19:26:22.169Z,27.70
2018-07-08T19:31:26.641Z,27.70
2018-07-08T19:36:30.841Z,27.60
2018-07-08T19:41:37.420Z,27.30
2018-07-08T20:03:05.851Z,26.70
2018-07-08T20:08:09.551Z,26.60
2018-07-08T20:13:13.183Z,26.50
2018-07-08T20:18:16.757Z,26.20
2018-07-08T20:23:20.315Z,26.10
2018-07-08T20:28:24.070Z,26.00
2018-07-08T20:33:27.714Z,25.90
2018-07-08T20:38:31.625Z,25.90
2018-07-08T20:43:35.580Z,25.70
2018-07-08T20:48:39.365Z,25.60
2018-07-08T20:53:43.027Z,25.60
2018-07-08T20:58:46.606Z,25.60
2018-07-08T21:03:51.050Z,25.70
2018-07-08T21:08:55.625Z,25.50
2018-07-08T21:13:59.239Z,25.30
2018-07-08T21:19:03.219Z,25.10
2018-07-08T21:24:06.843Z,24.80
2018-07-08T21:29:10.488Z,24.60
2018-07-08T21:34:14.644Z,24.40
2018-07-08T21:39:18.644Z,24.20
2018-07-08T21:44:22.855Z,24.10
2018-07-08T21:49:27.137Z,24.00
2018-07-08T21:54:30.699Z,23.80
2018-07-08T21:59:34.309Z,23.80
2018-07-08T22:04:38.268Z,23.60
2018-07-08T22:09:41.802Z,23.50
2018-07-08T22:14:45.706Z,23.30
2018-07-08T22:19:50.237Z,23.10
2018-07-08T22:24:53.776Z,23.00
2018-07-08T22:29:57.363Z,22.90
2018-07-08T22:35:00.936Z,22.70
2018-07-08T22:40:04.487Z,22.50
2018-07-08T22:45:08.020Z,22.40
2018-07-08T22:50:13.179Z,22.50
2018-07-08T23:00:31.176Z,22.50
2018-07-08T23:05:35.371Z,22.40
2018-07-08T23:10:38.995Z,22.10
2018-07-08T23:15:42.579Z,21.90
2018-07-08T23:20:46.172Z,21.80
2018-07-08T23:25:49.758Z,21.70
2018-07-08T23:30:53.371Z,21.60
2018-07-08T23:35:57.039Z,21.50
2018-07-08T23:41:01.394Z,21.40
2018-07-08T23:46:05.332Z,21.30
2018-07-08T23:51:08.940Z,21.10
2018-07-08T23:56:12.487Z,21.10
